sensor_id;sensor_type;location;lat;lon;timestamp;pressure;altitude;pressure_sealevel;temperature;humidity
65718;BME280;52445;52.466;-1.016;2022-09-14T00:00:52;99576.56;;;14.98;65.83
65718;BME280;52445;52.466;-1.016;2022-09-14T00:03:38;99572.31;;;14.95;65.67
65718;BME280;52445;52.466;-1.016;2022-09-14T00:06:07;99571.44;;;14.95;65.28
65718;BME280;52445;52.466;-1.016;2022-09-14T00:08:35;99570.69;;;14.91;65.61
65718;BME280;52445;52.466;-1.016;2022-09-14T00:11:07;99571.63;;;14.88;65.34
65718;BME280;52445;52.466;-1.016;2022-09-14T00:13:35;99570.81;;;14.86;65.54
65718;BME280;52445;52.466;-1.016;2022-09-14T00:16:05;99567.44;;;14.83;65.53
65718;BME280;52445;52.466;-1.016;2022-09-14T00:18:32;99558.44;;;14.61;66.25
65718;BME280;52445;52.466;-1.016;2022-09-14T00:21:02;99557.28;;;14.72;66.01
65718;BME280;52445;52.466;-1.016;2022-09-14T00:23:31;99555.53;;;14.72;65.92
65718;BME280;52445;52.466;-1.016;2022-09-14T00:26:06;99553.00;;;14.69;65.96
65718;BME280;52445;52.466;-1.016;2022-09-14T00:28:37;99557.38;;;14.69;66.39
65718;BME280;52445;52.466;-1.016;2022-09-14T00:31:06;99553.16;;;14.64;65.87
65718;BME280;52445;52.466;-1.016;2022-09-14T00:33:35;99551.53;;;14.60;66.53
65718;BME280;52445;52.466;-1.016;2022-09-14T00:36:05;99538.56;;;14.57;66.69
65718;BME280;52445;52.466;-1.016;2022-09-14T00:38:35;99530.84;;;14.54;66.97
65718;BME280;52445;52.466;-1.016;2022-09-14T00:41:03;99525.69;;;14.51;66.98
65718;BME280;52445;52.466;-1.016;2022-09-14T00:43:30;99522.31;;;14.49;66.64
65718;BME280;52445;52.466;-1.016;2022-09-14T00:45:59;99525.78;;;14.48;66.32
65718;BME280;52445;52.466;-1.016;2022-09-14T00:48:28;99526.72;;;14.45;66.31
65718;BME280;52445;52.466;-1.016;2022-09-14T00:50:55;99518.06;;;14.45;66.84
65718;BME280;52445;52.466;-1.016;2022-09-14T00:53:22;99518.94;;;14.44;67.07
65718;BME280;52445;52.466;-1.016;2022-09-14T00:55:49;99515.53;;;14.42;66.50
65718;BME280;52445;52.466;-1.016;2022-09-14T00:58:19;99509.47;;;14.41;67.26
65718;BME280;52445;52.466;-1.016;2022-09-14T01:00:46;99505.19;;;14.38;66.46
65718;BME280;52445;52.466;-1.016;2022-09-14T01:03:13;99505.19;;;14.38;66.75
65718;BME280;52445;52.466;-1.016;2022-09-14T01:28:02;99474.34;;;14.23;66.76
65718;BME280;52445;52.466;-1.016;2022-09-14T01:30:33;99470.88;;;14.22;67.31
65718;BME280;52445;52.466;-1.016;2022-09-14T01:33:10;99476.13;;;14.21;67.38
65718;BME280;52445;52.466;-1.016;2022-09-14T01:35:46;99470.13;;;14.19;67.18
65718;BME280;52445;52.466;-1.016;2022-09-14T01:40:58;99468.38;;;14.19;67.24
65718;BME280;52445;52.466;-1.016;2022-09-14T01:43:56;99467.75;;;14.09;67.54
65718;BME280;52445;52.466;-1.016;2022-09-14T01:46:30;99462.47;;;14.12;67.09
65718;BME280;52445;52.466;-1.016;2022-09-14T01:49:07;99462.47;;;14.12;67.49
65718;BME280;52445;52.466;-1.016;2022-09-14T01:56:54;99465.16;;;14.09;67.34
65718;BME280;52445;52.466;-1.016;2022-09-14T01:59:25;99462.53;;;14.09;67.04
65718;BME280;52445;52.466;-1.016;2022-09-14T02:01:59;99460.84;;;14.08;67.62
65718;BME280;52445;52.466;-1.016;2022-09-14T02:04:40;99456.59;;;14.06;66.82
65718;BME280;52445;52.466;-1.016;2022-09-14T02:07:10;99455.72;;;14.05;67.09
65718;BME280;52445;52.466;-1.016;2022-09-14T02:09:37;99454.06;;;14.03;67.81
65718;BME280;52445;52.466;-1.016;2022-09-14T02:12:04;99451.44;;;14.03;67.84
65718;BME280;52445;52.466;-1.016;2022-09-14T02:14:31;99448.06;;;14.00;66.97
65718;BME280;52445;52.466;-1.016;2022-09-14T02:16:58;99450.69;;;13.99;67.32
65718;BME280;52445;52.466;-1.016;2022-09-14T02:19:29;99457.66;;;13.97;67.02
65718;BME280;52445;52.466;-1.016;2022-09-14T02:21:58;99450.78;;;13.96;67.29
65718;BME280;52445;52.466;-1.016;2022-09-14T02:24:26;99443.00;;;13.94;67.76
65718;BME280;52445;52.466;-1.016;2022-09-14T02:26:53;99441.28;;;13.93;66.86
65718;BME280;52445;52.466;-1.016;2022-09-14T02:29:22;99441.34;;;13.92;67.29
65718;BME280;52445;52.466;-1.016;2022-09-14T02:32:01;99438.00;;;13.86;67.28
65718;BME280;52445;52.466;-1.016;2022-09-14T02:39:52;99421.63;;;13.81;66.86
65718;BME280;52445;52.466;-1.016;2022-09-14T02:59:09;99423.59;;;13.73;67.65
65718;BME280;52445;52.466;-1.016;2022-09-14T03:01:36;99419.44;;;13.66;67.59
65718;BME280;52445;52.466;-1.016;2022-09-14T03:04:03;99419.59;;;13.59;67.33
65718;BME280;52445;52.466;-1.016;2022-09-14T03:06:30;99424.00;;;13.56;68.07
65718;BME280;52445;52.466;-1.016;2022-09-14T03:08:56;99422.41;;;13.50;68.22
65718;BME280;52445;52.466;-1.016;2022-09-14T03:11:23;99418.16;;;13.46;68.37
65718;BME280;52445;52.466;-1.016;2022-09-14T03:13:50;99415.66;;;13.41;68.33
65718;BME280;52445;52.466;-1.016;2022-09-14T03:16:17;99415.72;;;13.40;68.34
65718;BME280;52445;52.466;-1.016;2022-09-14T03:18:44;99419.25;;;13.35;68.38
65718;BME280;52445;52.466;-1.016;2022-09-14T03:21:13;99420.19;;;13.33;68.64
65718;BME280;52445;52.466;-1.016;2022-09-14T03:23:43;99417.66;;;13.30;67.72
65718;BME280;52445;52.466;-1.016;2022-09-14T03:26:14;99410.78;;;13.27;68.51
65718;BME280;52445;52.466;-1.016;2022-09-14T03:28:41;99401.31;;;13.24;68.52
65718;BME280;52445;52.466;-1.016;2022-09-14T03:31:09;99412.66;;;13.22;67.82
65718;BME280;52445;52.466;-1.016;2022-09-14T03:33:36;99410.22;;;13.14;68.28
65718;BME280;52445;52.466;-1.016;2022-09-14T03:36:19;99409.59;;;13.04;68.03
65718;BME280;52445;52.466;-1.016;2022-09-14T03:38:46;99407.31;;;12.90;69.13
65718;BME280;52445;52.466;-1.016;2022-09-14T03:41:14;99399.19;;;13.04;68.71
65718;BME280;52445;52.466;-1.016;2022-09-14T03:43:41;99397.44;;;13.06;67.95
65718;BME280;52445;52.466;-1.016;2022-09-14T03:46:10;99397.44;;;13.06;67.74
65718;BME280;52445;52.466;-1.016;2022-09-14T03:48:37;99396.59;;;13.04;67.96
65718;BME280;52445;52.466;-1.016;2022-09-14T03:51:06;99403.53;;;13.05;67.92
65718;BME280;52445;52.466;-1.016;2022-09-14T03:53:33;99400.09;;;13.03;68.48
65718;BME280;52445;52.466;-1.016;2022-09-14T03:56:00;99406.19;;;13.02;67.80
65718;BME280;52445;52.466;-1.016;2022-09-14T03:58:30;99405.31;;;13.02;68.49
65718;BME280;52445;52.466;-1.016;2022-09-14T04:01:03;99411.47;;;12.99;68.85
65718;BME280;52445;52.466;-1.016;2022-09-14T04:03:30;99409.75;;;12.98;67.97
65718;BME280;52445;52.466;-1.016;2022-09-14T04:05:57;99406.31;;;12.96;67.85
65718;BME280;52445;52.466;-1.016;2022-09-14T04:08:24;99403.78;;;12.93;68.45
65718;BME280;52445;52.466;-1.016;2022-09-14T04:10:50;99403.84;;;12.91;68.33
65718;BME280;52445;52.466;-1.016;2022-09-14T04:13:17;99409.94;;;12.89;67.68
65718;BME280;52445;52.466;-1.016;2022-09-14T04:15:44;99403.94;;;12.87;68.93
65718;BME280;52445;52.466;-1.016;2022-09-14T04:18:20;99404.03;;;12.82;68.72
65718;BME280;52445;52.466;-1.016;2022-09-14T04:20:53;99398.06;;;12.78;68.80
65718;BME280;52445;52.466;-1.016;2022-09-14T04:23:33;99405.91;;;12.77;67.88
65718;BME280;52445;52.466;-1.016;2022-09-14T04:26:16;99399.03;;;12.74;68.78
65718;BME280;52445;52.466;-1.016;2022-09-14T04:28:44;99393.00;;;12.72;67.98
65718;BME280;52445;52.466;-1.016;2022-09-14T04:31:11;99388.72;;;12.69;67.98
65718;BME280;52445;52.466;-1.016;2022-09-14T04:33:40;99393.06;;;12.69;67.76
65718;BME280;52445;52.466;-1.016;2022-09-14T04:36:12;99390.50;;;12.67;67.70
65718;BME280;52445;52.466;-1.016;2022-09-14T04:38:40;99393.16;;;12.66;68.86
65718;BME280;52445;52.466;-1.016;2022-09-14T04:41:10;99392.31;;;12.64;68.29
65718;BME280;52445;52.466;-1.016;2022-09-14T04:43:38;99394.97;;;12.60;68.48
65718;BME280;52445;52.466;-1.016;2022-09-14T04:46:06;99392.44;;;12.57;69.12
65718;BME280;52445;52.466;-1.016;2022-09-14T04:48:35;99388.25;;;12.50;69.43
65718;BME280;52445;52.466;-1.016;2022-09-14T04:51:05;99396.09;;;12.49;69.36
65718;BME280;52445;52.466;-1.016;2022-09-14T04:53:32;99396.53;;;12.27;68.87
65718;BME280;52445;52.466;-1.016;2022-09-14T04:56:00;99397.22;;;12.37;69.39
65718;BME280;52445;52.466;-1.016;2022-09-14T04:58:27;99393.78;;;12.34;68.44
65718;BME280;52445;52.466;-1.016;2022-09-14T05:01:00;99386.88;;;12.33;68.47
65718;BME280;52445;52.466;-1.016;2022-09-14T05:03:27;99387.78;;;12.32;69.16
65718;BME280;52445;52.466;-1.016;2022-09-14T05:05:53;99390.41;;;12.31;68.82
65718;BME280;52445;52.466;-1.016;2022-09-14T05:08:20;99391.28;;;12.30;68.87
65718;BME280;52445;52.466;-1.016;2022-09-14T05:10:46;99393.06;;;12.28;69.13
65718;BME280;52445;52.466;-1.016;2022-09-14T05:13:13;99386.19;;;12.25;68.70
65718;BME280;52445;52.466;-1.016;2022-09-14T05:15:41;99392.28;;;12.24;69.61
65718;BME280;52445;52.466;-1.016;2022-09-14T05:18:08;99394.03;;;12.22;68.67
65718;BME280;52445;52.466;-1.016;2022-09-14T05:20:34;99390.69;;;12.17;68.35
65718;BME280;52445;52.466;-1.016;2022-09-14T05:23:01;99390.72;;;12.14;69.37
65718;BME280;52445;52.466;-1.016;2022-09-14T05:25:27;99382.97;;;12.12;68.79
65718;BME280;52445;52.466;-1.016;2022-09-14T05:27:54;99384.78;;;12.08;69.09
65718;BME280;52445;52.466;-1.016;2022-09-14T05:30:20;99392.56;;;12.08;69.25
65718;BME280;52445;52.466;-1.016;2022-09-14T05:32:47;99388.28;;;12.07;69.84
65718;BME280;52445;52.466;-1.016;2022-09-14T05:35:14;99378.75;;;12.06;68.96
65718;BME280;52445;52.466;-1.016;2022-09-14T05:37:40;99377.03;;;12.05;69.72
65718;BME280;52445;52.466;-1.016;2022-09-14T05:40:07;99381.34;;;12.05;69.42
65718;BME280;52445;52.466;-1.016;2022-09-14T05:42:34;99377.06;;;12.02;69.80
65718;BME280;52445;52.466;-1.016;2022-09-14T05:45:01;99375.38;;;12.01;68.82
65718;BME280;52445;52.466;-1.016;2022-09-14T05:47:28;99378.88;;;12.00;69.66
65718;BME280;52445;52.466;-1.016;2022-09-14T05:49:56;99379.72;;;11.99;68.86
65718;BME280;52445;52.466;-1.016;2022-09-14T05:52:23;99389.25;;;12.00;69.41
65718;BME280;52445;52.466;-1.016;2022-09-14T05:54:49;99395.28;;;12.01;69.15
65718;BME280;52445;52.466;-1.016;2022-09-14T05:57:16;99396.13;;;12.01;69.72
65718;BME280;52445;52.466;-1.016;2022-09-14T05:59:42;99396.13;;;12.01;69.22
65718;BME280;52445;52.466;-1.016;2022-09-14T06:02:09;99395.25;;;12.02;69.48
65718;BME280;52445;52.466;-1.016;2022-09-14T06:04:40;99389.16;;;12.03;69.75
65718;BME280;52445;52.466;-1.016;2022-09-14T06:07:07;99395.19;;;12.05;69.72
65718;BME280;52445;52.466;-1.016;2022-09-14T06:09:44;99395.16;;;12.08;69.52
65718;BME280;52445;52.466;-1.016;2022-09-14T06:12:11;99395.06;;;12.13;69.52
65718;BME280;52445;52.466;-1.016;2022-09-14T06:14:39;99398.47;;;12.17;70.49
65718;BME280;52445;52.466;-1.016;2022-09-14T06:17:06;99399.28;;;12.19;70.43
65718;BME280;52445;52.466;-1.016;2022-09-14T06:19:32;99402.69;;;12.23;71.10
65718;BME280;52445;52.466;-1.016;2022-09-14T06:21:59;99398.28;;;12.26;71.13
65718;BME280;52445;52.466;-1.016;2022-09-14T06:24:26;99392.13;;;12.30;70.91
65718;BME280;52445;52.466;-1.016;2022-09-14T06:26:52;99391.25;;;12.31;69.95
65718;BME280;52445;52.466;-1.016;2022-09-14T06:29:19;99390.38;;;12.32;70.69
65718;BME280;52445;52.466;-1.016;2022-09-14T06:31:46;99398.13;;;12.34;70.39
65718;BME280;52445;52.466;-1.016;2022-09-14T06:34:12;99403.28;;;12.36;70.91
65718;BME280;52445;52.466;-1.016;2022-09-14T06:36:39;99397.22;;;12.37;71.03
65718;BME280;52445;52.466;-1.016;2022-09-14T06:39:05;99405.84;;;12.39;69.74
65718;BME280;52445;52.466;-1.016;2022-09-14T06:41:32;99398.03;;;12.39;69.84
65718;BME280;52445;52.466;-1.016;2022-09-14T06:43:59;99393.66;;;12.41;69.70
65718;BME280;52445;52.466;-1.016;2022-09-14T06:46:29;99397.09;;;12.43;69.70
65718;BME280;52445;52.466;-1.016;2022-09-14T06:49:04;99403.13;;;12.43;69.60
65718;BME280;52445;52.466;-1.016;2022-09-14T06:51:36;99404.00;;;12.44;70.72
65718;BME280;52445;52.466;-1.016;2022-09-14T06:54:04;99394.41;;;12.46;69.90
65718;BME280;52445;52.466;-1.016;2022-09-14T06:56:33;99403.94;;;12.47;70.28
65718;BME280;52445;52.466;-1.016;2022-09-14T06:59:01;99397.00;;;12.46;70.02
65718;BME280;52445;52.466;-1.016;2022-09-14T07:01:28;99403.06;;;12.46;70.65
65718;BME280;52445;52.466;-1.016;2022-09-14T07:03:55;99394.38;;;12.47;71.50
65718;BME280;52445;52.466;-1.016;2022-09-14T07:06:25;99395.25;;;12.48;70.82
65718;BME280;52445;52.466;-1.016;2022-09-14T07:08:53;99402.38;;;12.79;71.42
65718;BME280;52445;52.466;-1.016;2022-09-14T07:11:22;99408.63;;;13.81;71.51
65718;BME280;52445;52.466;-1.016;2022-09-14T07:13:49;99397.56;;;14.97;69.81
65718;BME280;52445;52.466;-1.016;2022-09-14T07:16:15;99405.47;;;16.00;68.15
65718;BME280;52445;52.466;-1.016;2022-09-14T07:18:43;99408.34;;;16.88;66.26
65718;BME280;52445;52.466;-1.016;2022-09-14T07:21:13;99407.44;;;17.55;64.26
65718;BME280;52445;52.466;-1.016;2022-09-14T07:23:42;99405.47;;;18.22;63.06
65718;BME280;52445;52.466;-1.016;2022-09-14T07:28:52;99406.16;;;19.40;61.00
65718;BME280;52445;52.466;-1.016;2022-09-14T07:31:26;99405.50;;;20.06;59.87
65718;BME280;52445;52.466;-1.016;2022-09-14T07:33:56;99408.19;;;20.70;58.36
65718;BME280;52445;52.466;-1.016;2022-09-14T07:36:24;99401.53;;;21.27;57.19
65718;BME280;52445;52.466;-1.016;2022-09-14T07:38:51;99404.59;;;21.81;56.12
65718;BME280;52445;52.466;-1.016;2022-09-14T07:41:20;99407.53;;;22.34;54.97
65718;BME280;52445;52.466;-1.016;2022-09-14T07:43:48;99411.47;;;22.71;53.14
65718;BME280;52445;52.466;-1.016;2022-09-14T07:46:15;99415.53;;;23.04;52.58
65718;BME280;52445;52.466;-1.016;2022-09-14T07:48:42;99405.72;;;23.19;51.73
65718;BME280;52445;52.466;-1.016;2022-09-14T07:51:10;99412.72;;;23.33;51.02
65718;BME280;52445;52.466;-1.016;2022-09-14T07:53:38;99401.81;;;23.40;50.16
65718;BME280;52445;52.466;-1.016;2022-09-14T07:56:06;99401.47;;;23.44;50.08
65718;BME280;52445;52.466;-1.016;2022-09-14T07:58:34;99405.72;;;23.47;49.25
65718;BME280;52445;52.466;-1.016;2022-09-14T08:01:05;99403.31;;;23.29;49.70
65718;BME280;52445;52.466;-1.016;2022-09-14T08:03:40;99385.41;;;22.79;50.64
65718;BME280;52445;52.466;-1.016;2022-09-14T08:06:11;99386.63;;;22.31;50.67
65718;BME280;52445;52.466;-1.016;2022-09-14T08:08:40;99393.34;;;21.93;51.88
65718;BME280;52445;52.466;-1.016;2022-09-14T08:11:10;99377.78;;;22.03;52.51
65718;BME280;52445;52.466;-1.016;2022-09-14T08:13:40;99385.13;;;22.27;52.13
65718;BME280;52445;52.466;-1.016;2022-09-14T08:16:08;99380.66;;;22.71;51.54
65718;BME280;52445;52.466;-1.016;2022-09-14T08:18:36;99387.44;;;23.16;50.87
65718;BME280;52445;52.466;-1.016;2022-09-14T08:21:05;99387.13;;;23.61;50.26
65718;BME280;52445;52.466;-1.016;2022-09-14T08:23:33;99392.81;;;24.07;49.43
65718;BME280;52445;52.466;-1.016;2022-09-14T08:26:09;99385.38;;;24.51;50.07
65718;BME280;52445;52.466;-1.016;2022-09-14T08:28:36;99386.09;;;24.91;49.03
65718;BME280;52445;52.466;-1.016;2022-09-14T08:33:42;99378.72;;;25.55;47.81
65718;BME280;52445;52.466;-1.016;2022-09-14T08:36:12;99386.50;;;25.92;47.04
65718;BME280;52445;52.466;-1.016;2022-09-14T08:38:39;99392.66;;;26.27;46.97
65718;BME280;52445;52.466;-1.016;2022-09-14T08:41:11;99397.59;;;26.55;46.42
65718;BME280;52445;52.466;-1.016;2022-09-14T08:43:41;99398.69;;;26.85;46.22
65718;BME280;52445;52.466;-1.016;2022-09-14T08:46:14;99386.88;;;26.89;45.35
65718;BME280;52445;52.466;-1.016;2022-09-14T08:48:47;99387.81;;;26.88;44.65
65718;BME280;52445;52.466;-1.016;2022-09-14T08:51:14;99396.03;;;26.97;44.95
65718;BME280;52445;52.466;-1.016;2022-09-14T08:53:41;99389.78;;;26.98;45.45
65718;BME280;52445;52.466;-1.016;2022-09-14T08:56:14;99392.44;;;26.98;44.21
65718;BME280;52445;52.466;-1.016;2022-09-14T09:07:33;99403.50;;;27.57;43.47
65718;BME280;52445;52.466;-1.016;2022-09-14T09:10:04;99408.03;;;27.66;43.06
65718;BME280;52445;52.466;-1.016;2022-09-14T09:12:42;99400.72;;;27.80;43.23
65718;BME280;52445;52.466;-1.016;2022-09-14T09:15:20;99402.81;;;27.86;42.89
65718;BME280;52445;52.466;-1.016;2022-09-14T09:17:50;99399.00;;;28.00;42.64
65718;BME280;52445;52.466;-1.016;2022-09-14T09:20:22;99402.13;;;27.84;42.30
65718;BME280;52445;52.466;-1.016;2022-09-14T09:25:38;99395.03;;;27.63;42.36
65718;BME280;52445;52.466;-1.016;2022-09-14T09:28:11;99390.00;;;27.49;42.44
65718;BME280;52445;52.466;-1.016;2022-09-14T09:30:38;99385.19;;;27.42;42.60
65718;BME280;52445;52.466;-1.016;2022-09-14T09:33:14;99388.72;;;27.64;42.85
65718;BME280;52445;52.466;-1.016;2022-09-14T09:35:42;99389.47;;;27.55;42.41
65718;BME280;52445;52.466;-1.016;2022-09-14T09:38:14;99386.56;;;27.37;42.74
65718;BME280;52445;52.466;-1.016;2022-09-14T09:40:45;99387.59;;;27.45;42.54
65718;BME280;52445;52.466;-1.016;2022-09-14T09:43:15;99394.06;;;27.64;43.23
65718;BME280;52445;52.466;-1.016;2022-09-14T09:46:00;99389.69;;;27.42;42.82
65718;BME280;52445;52.466;-1.016;2022-09-14T09:48:44;99392.16;;;27.01;42.59
65718;BME280;52445;52.466;-1.016;2022-09-14T09:51:13;99390.84;;;26.51;43.53
65718;BME280;52445;52.466;-1.016;2022-09-14T09:53:47;99393.38;;;26.07;43.88
65718;BME280;52445;52.466;-1.016;2022-09-14T09:56:17;99388.16;;;25.71;44.72
65718;BME280;52445;52.466;-1.016;2022-09-14T09:58:45;99382.41;;;25.77;45.26
65718;BME280;52445;52.466;-1.016;2022-09-14T10:01:26;99387.22;;;26.17;45.72
65718;BME280;52445;52.466;-1.016;2022-09-14T10:06:51;99399.31;;;26.33;43.96
65718;BME280;52445;52.466;-1.016;2022-09-14T10:09:21;99393.03;;;26.00;44.55
65718;BME280;52445;52.466;-1.016;2022-09-14T10:11:58;99392.28;;;26.09;45.49
65718;BME280;52445;52.466;-1.016;2022-09-14T10:17:16;99389.91;;;26.29;43.83
65718;BME280;52445;52.466;-1.016;2022-09-14T10:19:51;99387.47;;;26.14;44.19
65718;BME280;52445;52.466;-1.016;2022-09-14T10:30:38;99375.25;;;26.58;44.90
65718;BME280;52445;52.466;-1.016;2022-09-14T10:33:10;99372.66;;;26.79;45.07
65718;BME280;52445;52.466;-1.016;2022-09-14T10:41:02;99367.81;;;27.38;43.12
65718;BME280;52445;52.466;-1.016;2022-09-14T10:46:11;99360.34;;;26.78;42.39
65718;BME280;52445;52.466;-1.016;2022-09-14T10:57:15;99366.16;;;25.46;43.53
65718;BME280;52445;52.466;-1.016;2022-09-14T11:26:46;99363.13;;;23.91;46.40
65718;BME280;52445;52.466;-1.016;2022-09-14T11:35:01;99362.78;;;23.43;47.01
65718;BME280;52445;52.466;-1.016;2022-09-14T11:37:36;99357.78;;;23.26;47.44
65718;BME280;52445;52.466;-1.016;2022-09-14T11:42:54;99369.34;;;22.97;47.70
65718;BME280;52445;52.466;-1.016;2022-09-14T11:45:28;99371.75;;;23.00;48.45
65718;BME280;52445;52.466;-1.016;2022-09-14T11:48:03;99364.06;;;22.97;47.70
65718;BME280;52445;52.466;-1.016;2022-09-14T11:50:53;99371.13;;;22.96;48.62
65718;BME280;52445;52.466;-1.016;2022-09-14T11:53:23;99380.09;;;22.94;48.26
65718;BME280;52445;52.466;-1.016;2022-09-14T11:55:51;99370.00;;;22.86;48.17
65718;BME280;52445;52.466;-1.016;2022-09-14T11:58:21;99369.09;;;22.87;48.67
65718;BME280;52445;52.466;-1.016;2022-09-14T12:03:45;99375.47;;;22.70;48.12
65718;BME280;52445;52.466;-1.016;2022-09-14T12:11:53;99378.34;;;23.20;49.07
65718;BME280;52445;52.466;-1.016;2022-09-14T12:19:36;99370.63;;;23.45;47.88
65718;BME280;52445;52.466;-1.016;2022-09-14T12:27:41;99366.53;;;23.26;47.44
65718;BME280;52445;52.466;-1.016;2022-09-14T12:44:31;99363.31;;;23.61;47.13
65718;BME280;52445;52.466;-1.016;2022-09-14T13:47:32;99337.03;;;23.06;45.46
65718;BME280;52445;52.466;-1.016;2022-09-14T13:49:59;99329.72;;;22.97;46.05
65718;BME280;52445;52.466;-1.016;2022-09-14T13:52:29;99334.16;;;22.96;46.76
65718;BME280;52445;52.466;-1.016;2022-09-14T13:55:26;99328.44;;;22.90;46.85
65718;BME280;52445;52.466;-1.016;2022-09-14T13:58:19;99321.19;;;22.79;46.22
65718;BME280;52445;52.466;-1.016;2022-09-14T14:03:38;99320.44;;;23.04;44.76
65718;BME280;52445;52.466;-1.016;2022-09-14T14:06:26;99330.16;;;22.76;45.22
65718;BME280;52445;52.466;-1.016;2022-09-14T14:09:04;99319.09;;;22.71;45.78
65718;BME280;52445;52.466;-1.016;2022-09-14T14:28:21;99324.13;;;22.61;46.39
65718;BME280;52445;52.466;-1.016;2022-09-14T14:30:49;99323.47;;;22.57;46.21
65718;BME280;52445;52.466;-1.016;2022-09-14T14:33:17;99312.41;;;22.51;46.28
65718;BME280;52445;52.466;-1.016;2022-09-14T14:35:46;99309.25;;;22.45;47.11
65718;BME280;52445;52.466;-1.016;2022-09-14T14:38:13;99311.28;;;22.27;47.90
65718;BME280;52445;52.466;-1.016;2022-09-14T14:40:41;99307.31;;;22.34;47.30
65718;BME280;52445;52.466;-1.016;2022-09-14T14:43:16;99308.31;;;22.32;47.50
65718;BME280;52445;52.466;-1.016;2022-09-14T14:45:44;99309.38;;;22.29;47.88
65718;BME280;52445;52.466;-1.016;2022-09-14T14:48:11;99317.59;;;22.25;48.27
65718;BME280;52445;52.466;-1.016;2022-09-14T14:50:38;99314.47;;;22.18;48.74
65718;BME280;52445;52.466;-1.016;2022-09-14T14:53:05;99312.25;;;22.12;48.69
65718;BME280;52445;52.466;-1.016;2022-09-14T14:55:32;99308.19;;;22.06;48.41
65718;BME280;52445;52.466;-1.016;2022-09-14T14:58:05;99321.66;;;22.01;48.40
65718;BME280;52445;52.466;-1.016;2022-09-14T15:00:35;99310.66;;;21.94;48.68
65718;BME280;52445;52.466;-1.016;2022-09-14T15:03:03;99315.66;;;21.85;49.23
65718;BME280;52445;52.466;-1.016;2022-09-14T15:05:31;99313.38;;;21.78;49.20
65718;BME280;52445;52.466;-1.016;2022-09-14T15:07:57;99322.50;;;21.73;49.38
65718;BME280;52445;52.466;-1.016;2022-09-14T15:10:26;99320.13;;;21.68;49.52
65718;BME280;52445;52.466;-1.016;2022-09-14T15:12:52;99323.25;;;21.60;49.48
65718;BME280;52445;52.466;-1.016;2022-09-14T15:15:23;99326.31;;;21.52;49.74
65718;BME280;52445;52.466;-1.016;2022-09-14T15:17:51;99330.28;;;21.45;50.01
65718;BME280;52445;52.466;-1.016;2022-09-14T15:20:18;99323.88;;;21.35;49.55
65718;BME280;52445;52.466;-1.016;2022-09-14T15:22:46;99333.06;;;21.27;49.87
65718;BME280;52445;52.466;-1.016;2022-09-14T15:25:14;99333.41;;;21.21;50.31
65718;BME280;52445;52.466;-1.016;2022-09-14T15:27:41;99330.22;;;21.16;50.26
65718;BME280;52445;52.466;-1.016;2022-09-14T15:30:08;99327.84;;;21.11;49.98
65718;BME280;52445;52.466;-1.016;2022-09-14T15:32:35;99336.03;;;21.06;50.51
65718;BME280;52445;52.466;-1.016;2022-09-14T15:35:03;99344.84;;;21.05;50.47
65718;BME280;52445;52.466;-1.016;2022-09-14T15:37:30;99348.69;;;21.00;50.61
65718;BME280;52445;52.466;-1.016;2022-09-14T15:39:57;99345.22;;;20.99;50.90
65718;BME280;52445;52.466;-1.016;2022-09-14T15:42:24;99348.97;;;20.95;50.65
65718;BME280;52445;52.466;-1.016;2022-09-14T15:44:50;99343.69;;;20.95;50.78
65718;BME280;52445;52.466;-1.016;2022-09-14T15:47:17;99351.75;;;20.92;50.79
65718;BME280;52445;52.466;-1.016;2022-09-14T15:49:44;99347.66;;;20.86;50.91
65718;BME280;52445;52.466;-1.016;2022-09-14T15:52:11;99352.53;;;20.78;50.91
65718;BME280;52445;52.466;-1.016;2022-09-14T15:54:37;99346.16;;;20.66;50.42
65718;BME280;52445;52.466;-1.016;2022-09-14T15:57:07;99348.38;;;20.58;50.83
65718;BME280;52445;52.466;-1.016;2022-09-14T15:59:35;99349.66;;;20.50;51.20
65718;BME280;52445;52.466;-1.016;2022-09-14T16:02:02;99353.53;;;20.43;51.06
65718;BME280;52445;52.466;-1.016;2022-09-14T16:04:34;99362.72;;;20.36;51.16
65718;BME280;52445;52.466;-1.016;2022-09-14T16:07:02;99354.16;;;20.32;51.32
65718;BME280;52445;52.466;-1.016;2022-09-14T16:09:30;99364.75;;;20.31;51.34
65718;BME280;52445;52.466;-1.016;2022-09-14T16:11:57;99364.91;;;20.27;51.51
65718;BME280;52445;52.466;-1.016;2022-09-14T16:14:27;99363.22;;;20.26;51.82
65718;BME280;52445;52.466;-1.016;2022-09-14T16:16:53;99365.91;;;20.25;51.31
65718;BME280;52445;52.466;-1.016;2022-09-14T16:19:20;99364.31;;;20.22;51.66
65718;BME280;52445;52.466;-1.016;2022-09-14T16:21:47;99372.19;;;20.22;51.95
65718;BME280;52445;52.466;-1.016;2022-09-14T16:24:20;99375.94;;;20.18;51.46
65718;BME280;52445;52.466;-1.016;2022-09-14T16:26:47;99368.19;;;20.15;51.84
65718;BME280;52445;52.466;-1.016;2022-09-14T16:29:15;99370.16;;;20.11;51.70
65718;BME280;52445;52.466;-1.016;2022-09-14T16:31:43;99373.03;;;20.07;51.96
65718;BME280;52445;52.466;-1.016;2022-09-14T16:34:15;99371.56;;;20.01;51.60
65718;BME280;52445;52.466;-1.016;2022-09-14T16:36:43;99377.03;;;19.96;51.58
65718;BME280;52445;52.466;-1.016;2022-09-14T16:39:13;99377.03;;;19.96;51.83
65718;BME280;52445;52.466;-1.016;2022-09-14T16:41:40;99376.28;;;19.94;52.06
65718;BME280;52445;52.466;-1.016;2022-09-14T16:44:11;99400.00;;;19.93;52.02
65718;BME280;52445;52.466;-1.016;2022-09-14T16:46:38;99386.94;;;19.91;51.93
65718;BME280;52445;52.466;-1.016;2022-09-14T16:49:05;99388.72;;;19.90;52.11
65718;BME280;52445;52.466;-1.016;2022-09-14T16:51:34;99389.72;;;19.88;51.94
65718;BME280;52445;52.466;-1.016;2022-09-14T16:54:01;99390.22;;;19.78;52.23
65718;BME280;52445;52.466;-1.016;2022-09-14T16:56:30;99393.94;;;19.74;52.61
65718;BME280;52445;52.466;-1.016;2022-09-14T16:58:58;99398.63;;;19.68;52.46
65718;BME280;52445;52.466;-1.016;2022-09-14T17:04:07;99395.41;;;19.62;52.54
65718;BME280;52445;52.466;-1.016;2022-09-14T17:06:36;99399.19;;;19.57;52.49
65718;BME280;52445;52.466;-1.016;2022-09-14T17:09:06;99396.72;;;19.53;52.89
65718;BME280;52445;52.466;-1.016;2022-09-14T17:11:34;99396.19;;;19.47;52.58
65718;BME280;52445;52.466;-1.016;2022-09-14T17:14:03;99392.88;;;19.43;52.75